Time;durP1;ratioP1;P1;durP2;ratioP2;P2;SDS_P1;SDS_P2;PMS_P1;PMS_P2;Temp;Humidity;BMP_temperature;BMP_pressure;BME280_temperature;BME280_humidity;BME280_pressure;Samples;Min_cycle;Max_cycle;Signal;HPM_P1;HPM_P2
2022/06/17 00:01:40;;;;;;;6.25;2.70;;;14.10;86.50;;;;;;4961552;28;20037;-69
2022/06/17 00:04:07;;;;;;;4.90;2.90;;;14.20;85.80;;;;;;4967388;28;20019;-68
2022/06/17 00:06:42;;;;;;;5.82;3.00;;;14.20;85.00;;;;;;4980438;28;20929;-69
2022/06/17 00:09:10;;;;;;;7.88;3.00;;;14.30;84.00;;;;;;4957319;28;20037;-68
2022/06/17 00:11:41;;;;;;;5.00;2.67;;;14.50;83.70;;;;;;4969675;28;20416;-68
2022/06/17 00:14:18;;;;;;;5.15;2.90;;;14.50;83.50;;;;;;4957363;28;20070;-67
2022/06/17 00:16:46;;;;;;;5.95;2.60;;;14.60;83.60;;;;;;4961690;28;20035;-67
2022/06/17 00:19:12;;;;;;;4.93;2.60;;;14.60;84.40;;;;;;4957062;28;20033;-68
2022/06/17 00:21:51;;;;;;;4.53;2.65;;;14.50;84.80;;;;;;4976524;28;20042;-68
2022/06/17 00:24:31;;;;;;;5.70;2.95;;;14.50;84.80;;;;;;4955022;28;20133;-69
2022/06/17 00:26:57;;;;;;;4.32;2.47;;;14.40;85.80;;;;;;4963458;28;20027;-68
2022/06/17 00:29:26;;;;;;;8.13;2.90;;;14.40;86.40;;;;;;4965659;28;20065;-68
2022/06/17 00:31:58;;;;;;;9.57;3.00;;;14.30;86.50;;;;;;4962580;28;20031;-67
2022/06/17 00:34:25;;;;;;;5.85;2.83;;;14.20;86.20;;;;;;4960177;28;20301;-69
2022/06/17 00:36:56;;;;;;;7.40;2.67;;;14.30;85.30;;;;;;4945197;28;20055;-69
2022/06/17 00:39:29;;;;;;;5.22;2.78;;;14.40;83.80;;;;;;4946046;28;20074;-68
2022/06/17 00:42:03;;;;;;;6.07;2.53;;;14.50;84.80;;;;;;4950984;28;20533;-68
2022/06/17 00:44:49;;;;;;;5.85;2.25;;;14.40;85.40;;;;;;4977601;28;20038;-69
2022/06/17 00:47:24;;;;;;;6.72;2.85;;;14.30;85.20;;;;;;4965822;28;20041;-69
2022/06/17 00:50:01;;;;;;;5.60;2.67;;;14.30;85.20;;;;;;4971429;28;20106;-67
2022/06/17 00:52:30;;;;;;;7.03;2.83;;;14.20;85.30;;;;;;4943279;28;20032;-68
2022/06/17 00:55:29;;;;;;;4.63;2.60;;;14.20;85.60;;;;;;4970203;28;20450;-68
2022/06/17 00:57:57;;;;;;;5.93;2.70;;;14.20;85.50;;;;;;4963301;28;20043;-68
2022/06/17 01:00:26;;;;;;;4.93;2.53;;;14.10;86.00;;;;;;4970541;28;20319;-67
2022/06/17 01:02:57;;;;;;;7.80;2.97;;;14.00;86.10;;;;;;4956502;28;20034;-67
2022/06/17 01:05:43;;;;;;;8.73;3.20;;;13.80;87.60;;;;;;4954514;28;20027;-67
2022/06/17 01:11:19;;;;;;;4.97;2.85;;;13.60;88.80;;;;;;4967807;28;20248;-68
2022/06/17 01:13:47;;;;;;;5.43;2.95;;;13.60;87.50;;;;;;4974429;28;20027;-67
2022/06/17 01:16:17;;;;;;;6.22;2.60;;;13.70;87.00;;;;;;4973255;28;20108;-69
2022/06/17 01:18:45;;;;;;;5.55;2.67;;;13.80;86.50;;;;;;4959727;28;20032;-69
2022/06/17 01:21:35;;;;;;;6.18;2.70;;;13.80;86.40;;;;;;4972309;28;20028;-70
2022/06/17 01:24:04;;;;;;;6.35;2.78;;;13.70;87.20;;;;;;4959713;28;20077;-67
2022/06/17 01:26:29;;;;;;;6.03;2.80;;;13.60;87.60;;;;;;4960264;28;20030;-68
2022/06/17 01:28:55;;;;;;;4.85;2.67;;;13.60;87.60;;;;;;4973755;28;20031;-66
2022/06/17 01:31:22;;;;;;;7.13;2.63;;;13.60;87.60;;;;;;4974047;28;20042;-67
2022/06/17 01:33:48;;;;;;;4.75;2.83;;;13.60;87.70;;;;;;4960957;28;20397;-67
2022/06/17 01:36:16;;;;;;;5.35;2.95;;;13.50;88.10;;;;;;4956296;28;20079;-66
2022/06/17 01:38:44;;;;;;;5.10;2.75;;;13.40;89.00;;;;;;4962907;28;20038;-67
2022/06/17 01:41:11;;;;;;;6.47;2.90;;;13.30;88.80;;;;;;4964220;28;20519;-67
2022/06/17 01:43:40;;;;;;;5.53;2.40;;;13.30;88.90;;;;;;4967293;28;20083;-66
2022/06/17 01:46:15;;;;;;;6.07;3.10;;;13.30;89.10;;;;;;4966960;28;20027;-67
2022/06/17 01:48:47;;;;;;;8.45;2.90;;;13.20;89.30;;;;;;4960501;28;20160;-68
2022/06/17 01:51:14;;;;;;;6.75;3.05;;;13.00;89.90;;;;;;4969857;28;20327;-68
2022/06/17 01:53:47;;;;;;;7.68;2.83;;;12.90;90.40;;;;;;4968056;28;20354;-68
2022/06/17 01:56:16;;;;;;;7.82;3.33;;;12.80;90.50;;;;;;4966817;28;20144;-68
2022/06/17 01:58:59;;;;;;;5.35;2.97;;;12.80;90.40;;;;;;4960454;28;20042;-68
2022/06/17 02:01:28;;;;;;;4.38;2.50;;;12.90;90.10;;;;;;4965899;28;20030;-70
2022/06/17 02:04:02;;;;;;;7.93;3.08;;;12.90;90.50;;;;;;4967626;28;20072;-69
2022/06/17 02:06:40;;;;;;;5.45;2.97;;;12.90;90.00;;;;;;4974820;28;20054;-68
2022/06/17 02:09:06;;;;;;;6.05;2.50;;;13.00;89.70;;;;;;4964155;28;20121;-69
2022/06/17 02:11:33;;;;;;;5.75;3.17;;;13.00;89.40;;;;;;4969770;28;20065;-69
2022/06/17 02:14:06;;;;;;;5.95;2.83;;;13.10;89.30;;;;;;4982713;28;20411;-69
2022/06/17 02:16:39;;;;;;;5.85;3.10;;;13.10;89.30;;;;;;4973954;28;20031;-69
2022/06/17 02:19:05;;;;;;;6.90;3.00;;;13.00;89.80;;;;;;4967457;28;20100;-68
2022/06/17 02:21:40;;;;;;;5.88;2.95;;;12.80;90.40;;;;;;4974388;28;20057;-69
2022/06/17 02:24:08;;;;;;;7.28;3.20;;;12.60;91.20;;;;;;4962623;28;20098;-69
2022/06/17 02:26:37;;;;;;;5.35;2.70;;;12.60;91.90;;;;;;4959084;28;20131;-69
2022/06/17 02:29:06;;;;;;;6.80;2.75;;;12.50;92.20;;;;;;4962524;28;20035;-69
2022/06/17 02:31:34;;;;;;;4.85;2.95;;;12.40;92.30;;;;;;4975099;28;20418;-68
2022/06/17 02:34:00;;;;;;;6.63;2.97;;;12.40;92.50;;;;;;4954589;28;20373;-69
2022/06/17 02:36:37;;;;;;;6.15;2.88;;;12.40;92.60;;;;;;4958592;28;20035;-68
2022/06/17 02:39:04;;;;;;;6.82;3.30;;;12.30;92.70;;;;;;4960219;28;20073;-68
2022/06/17 02:41:30;;;;;;;4.97;2.60;;;12.30;92.30;;;;;;4969000;28;20438;-68
2022/06/17 02:44:05;;;;;;;6.65;2.85;;;12.50;91.80;;;;;;4960605;28;20478;-68
2022/06/17 02:46:37;;;;;;;4.28;2.75;;;12.60;91.40;;;;;;4956242;28;20035;-68
2022/06/17 02:49:07;;;;;;;5.72;3.30;;;12.50;91.90;;;;;;4956244;28;20460;-68
2022/06/17 02:51:37;;;;;;;5.38;3.05;;;12.40;92.20;;;;;;4967311;28;20450;-69
2022/06/17 02:54:07;;;;;;;5.80;2.78;;;12.50;92.00;;;;;;4973956;28;20038;-68
2022/06/17 02:56:35;;;;;;;5.75;3.45;;;12.60;91.40;;;;;;4966819;28;20058;-68
2022/06/17 02:59:30;;;;;;;6.13;3.10;;;12.60;91.20;;;;;;4971468;28;20054;-68
2022/06/17 03:01:57;;;;;;;;;;;12.50;91.50;;;;;;4968012;28;20034;-68
2022/06/17 03:04:31;;;;;;;5.72;2.72;;;12.50;91.80;;;;;;4969037;28;20306;-67
2022/06/17 03:06:56;;;;;;;7.03;3.03;;;12.50;91.10;;;;;;4969394;28;20059;-69
2022/06/17 03:09:36;;;;;;;4.72;2.88;;;12.50;91.10;;;;;;4970714;28;20081;-68
2022/06/17 03:12:04;;;;;;;5.35;3.15;;;12.40;90.70;;;;;;4967661;28;20537;-67
2022/06/17 03:14:39;;;;;;;6.28;2.92;;;12.40;91.50;;;;;;4976257;28;20034;-67
2022/06/17 03:17:10;;;;;;;7.72;3.30;;;12.30;91.90;;;;;;4954379;28;20367;-67
2022/06/17 03:19:37;;;;;;;7.10;3.47;;;12.30;92.60;;;;;;4965201;28;20059;-69
2022/06/17 03:22:09;;;;;;;7.18;3.40;;;12.20;93.00;;;;;;4960962;28;20035;-67
2022/06/17 03:24:49;;;;;;;6.85;3.33;;;12.20;93.10;;;;;;4967749;28;20027;-69
2022/06/17 03:27:25;;;;;;;5.47;3.17;;;12.10;93.50;;;;;;4961949;28;20034;-69
2022/06/17 03:29:55;;;;;;;6.22;3.00;;;12.20;92.30;;;;;;4964368;28;21603;-70
2022/06/17 03:32:26;;;;;;;7.30;3.30;;;12.30;92.10;;;;;;4965765;28;20038;-68
2022/06/17 03:34:55;;;;;;;6.93;3.60;;;12.30;92.60;;;;;;4964973;28;20073;-68
2022/06/17 03:37:33;;;;;;;6.80;3.17;;;12.30;92.50;;;;;;4966685;28;20101;-68
2022/06/17 03:40:14;;;;;;;5.40;3.10;;;12.30;92.40;;;;;;4961466;28;20023;-68
2022/06/17 03:42:58;;;;;;;6.88;3.28;;;12.20;92.80;;;;;;4980922;28;20045;-69
2022/06/17 03:45:28;;;;;;;5.38;3.30;;;12.20;93.00;;;;;;4959973;28;20055;-69
2022/06/17 03:47:54;;;;;;;5.97;3.10;;;12.20;93.10;;;;;;4954771;28;20031;-69
2022/06/17 03:50:27;;;;;;;6.25;3.78;;;12.20;93.30;;;;;;4967382;28;20027;-69
2022/06/17 03:53:15;;;;;;;6.60;3.10;;;12.20;93.70;;;;;;4969030;28;20035;-69
2022/06/17 03:55:41;;;;;;;9.68;3.25;;;12.20;93.70;;;;;;4966538;28;20278;-68
2022/06/17 03:58:10;;;;;;;8.50;3.10;;;12.20;93.10;;;;;;4959446;28;20400;-68
2022/06/17 04:00:49;;;;;;;8.52;3.50;;;12.30;92.30;;;;;;4967476;28;20118;-69
2022/06/17 04:03:25;;;;;;;5.70;3.35;;;12.40;92.30;;;;;;4965974;28;20034;-69
2022/06/17 04:06:13;;;;;;;5.35;3.20;;;12.40;92.80;;;;;;4964673;28;20023;-68
2022/06/17 04:09:01;;;;;;;6.38;3.30;;;12.40;93.10;;;;;;4966693;28;20036;-69
2022/06/17 04:11:38;;;;;;;5.45;3.20;;;12.40;93.30;;;;;;4960920;28;20036;-69
2022/06/17 04:14:16;;;;;;;7.28;3.22;;;12.30;93.20;;;;;;4956637;28;20031;-68
2022/06/17 04:16:58;;;;;;;4.97;3.28;;;12.30;93.20;;;;;;4967687;28;20115;-68
2022/06/17 04:19:26;;;;;;;7.75;3.33;;;12.30;93.50;;;;;;4970799;28;20195;-69
2022/06/17 04:21:59;;;;;;;8.60;3.45;;;12.30;93.70;;;;;;4956296;28;20093;-68
2022/06/17 04:24:27;;;;;;;7.60;3.63;;;12.40;93.90;;;;;;4961239;28;20323;-68
2022/06/17 04:27:00;;;;;;;5.60;3.22;;;12.40;94.40;;;;;;4960411;28;20282;-68
2022/06/17 04:29:40;;;;;;;6.50;3.10;;;12.50;94.20;;;;;;4963527;28;21644;-68
2022/06/17 04:32:18;;;;;;;7.38;3.38;;;12.60;94.10;;;;;;4968920;28;20060;-68
2022/06/17 04:34:43;;;;;;;5.70;3.50;;;12.60;94.10;;;;;;4961247;28;20062;-68
2022/06/17 04:37:19;;;;;;;5.10;3.45;;;12.50;94.50;;;;;;4958930;28;20111;-69
2022/06/17 04:39:47;;;;;;;5.55;3.70;;;12.60;94.40;;;;;;4960788;28;20038;-68
2022/06/17 04:42:22;;;;;;;6.95;3.22;;;12.60;94.80;;;;;;4969865;28;20027;-68
2022/06/17 04:44:51;;;;;;;8.20;2.95;;;12.60;94.80;;;;;;4958173;28;20428;-69
2022/06/17 04:47:20;;;;;;;6.35;3.67;;;12.70;94.60;;;;;;4962295;28;20027;-68
2022/06/17 04:49:57;;;;;;;4.63;2.83;;;12.80;94.30;;;;;;4963952;28;20316;-68
2022/06/17 04:52:36;;;;;;;6.30;3.15;;;12.90;94.20;;;;;;4966287;28;20023;-68
2022/06/17 04:55:06;;;;;;;4.82;3.15;;;13.00;94.50;;;;;;4959905;28;20336;-68
2022/06/17 04:57:32;;;;;;;5.30;3.10;;;12.90;94.70;;;;;;4972111;28;20423;-68
2022/06/17 04:59:59;;;;;;;5.65;3.00;;;13.00;94.60;;;;;;4972871;28;20031;-68
2022/06/17 05:02:32;;;;;;;6.18;3.60;;;13.00;94.00;;;;;;4973678;28;20080;-68
2022/06/17 05:05:04;;;;;;;5.88;3.33;;;13.10;94.20;;;;;;4962189;28;20305;-69
2022/06/17 05:07:39;;;;;;;7.80;3.83;;;13.10;94.50;;;;;;4961156;28;20031;-68
2022/06/17 05:10:11;;;;;;;6.07;3.40;;;13.10;94.90;;;;;;4967752;28;20312;-68
2022/06/17 05:12:46;;;;;;;4.75;2.90;;;13.10;95.10;;;;;;4969910;28;20035;-68
2022/06/17 05:15:22;;;;;;;6.15;3.30;;;13.20;94.50;;;;;;4967571;28;20035;-68
2022/06/17 05:17:48;;;;;;;5.35;3.00;;;13.30;94.00;;;;;;4975009;28;20034;-68
2022/06/17 05:20:17;;;;;;;6.47;3.17;;;13.50;93.60;;;;;;4964426;28;20427;-68
2022/06/17 05:23:14;;;;;;;5.07;3.15;;;13.60;92.80;;;;;;4979777;28;20170;-68
2022/06/17 05:25:43;;;;;;;4.80;3.00;;;13.80;91.10;;;;;;4971322;28;20085;-67
2022/06/17 05:28:17;;;;;;;6.55;3.03;;;14.00;90.80;;;;;;4956839;28;20138;-68
2022/06/17 05:30:55;;;;;;;5.72;2.83;;;14.10;91.00;;;;;;4963655;28;20112;-67
2022/06/17 05:33:22;;;;;;;5.15;2.90;;;14.30;91.20;;;;;;4967628;28;20446;-67
2022/06/17 05:35:49;;;;;;;4.65;2.70;;;14.60;88.60;;;;;;4960579;28;20031;-68
2022/06/17 05:38:15;;;;;;;5.30;3.28;;;14.80;89.50;;;;;;4964720;28;20101;-69
2022/06/17 05:40:41;;;;;;;5.20;3.13;;;15.00;90.70;;;;;;4954037;28;20059;-68
2022/06/17 05:43:09;;;;;;;4.93;2.92;;;15.10;89.60;;;;;;4966386;28;20030;-67
2022/06/17 05:45:37;;;;;;;5.72;3.28;;;15.30;88.80;;;;;;4962314;28;20032;-68
2022/06/17 05:48:05;;;;;;;4.82;2.83;;;15.50;87.60;;;;;;4973805;28;20027;-68
2022/06/17 05:50:34;;;;;;;4.53;2.85;;;15.70;88.00;;;;;;4968651;28;20035;-68
2022/06/17 05:53:02;;;;;;;5.28;3.10;;;15.80;87.80;;;;;;4985758;28;20033;-68
2022/06/17 05:55:30;;;;;;;6.63;2.85;;;16.00;85.80;;;;;;4979075;28;20031;-68
2022/06/17 05:57:57;;;;;;;4.85;2.65;;;16.20;84.70;;;;;;4970988;28;20108;-68
2022/06/17 06:00:24;;;;;;;4.93;2.72;;;16.30;83.20;;;;;;4965824;28;20096;-68
2022/06/17 06:02:50;;;;;;;5.43;2.78;;;16.60;82.80;;;;;;4964873;28;20031;-68
2022/06/17 06:05:22;;;;;;;4.88;2.50;;;16.80;80.60;;;;;;4962447;28;20102;-68
2022/06/17 06:07:48;;;;;;;5.65;2.58;;;17.10;78.60;;;;;;4965104;28;20049;-67
2022/06/17 06:10:15;;;;;;;6.45;2.90;;;17.20;78.00;;;;;;4965338;28;20035;-67
2022/06/17 06:12:53;;;;;;;5.90;2.72;;;17.40;76.80;;;;;;4970472;28;20113;-69
2022/06/17 06:15:39;;;;;;;7.13;2.58;;;17.40;77.40;;;;;;4962741;28;20024;-68
2022/06/17 06:18:16;;;;;;;6.47;2.90;;;17.50;78.00;;;;;;4965497;28;20058;-69
2022/06/17 06:20:42;;;;;;;4.53;2.55;;;17.70;75.90;;;;;;4956041;28;20326;-69
2022/06/17 06:23:08;;;;;;;4.80;2.30;;;17.80;75.10;;;;;;4967099;28;20114;-68
2022/06/17 06:25:34;;;;;;;4.38;2.78;;;17.90;75.30;;;;;;4976229;28;20312;-69
2022/06/17 06:28:08;;;;;;;5.57;3.05;;;18.00;73.90;;;;;;4959404;28;20485;-68
2022/06/17 06:30:37;;;;;;;5.68;2.40;;;18.00;74.00;;;;;;4973173;28;20026;-68
2022/06/17 06:33:03;;;;;;;4.72;2.85;;;18.20;74.20;;;;;;4960087;28;20058;-68
2022/06/17 06:35:33;;;;;;;6.28;3.28;;;18.40;75.10;;;;;;4956784;28;20027;-70
2022/06/17 06:38:00;;;;;;;5.38;2.80;;;18.50;74.40;;;;;;4954666;28;20055;-68
2022/06/17 06:40:26;;;;;;;6.30;3.00;;;18.70;75.00;;;;;;4956876;28;20615;-68
2022/06/17 06:42:52;;;;;;;6.53;2.80;;;18.90;75.30;;;;;;4978050;28;20426;-68
2022/06/17 06:45:22;;;;;;;6.85;2.92;;;19.10;74.30;;;;;;4975181;28;20106;-69
2022/06/17 06:47:52;;;;;;;6.35;3.20;;;19.40;73.00;;;;;;4964619;28;20409;-68
2022/06/17 06:50:25;;;;;;;5.55;2.65;;;19.60;73.30;;;;;;5045342;28;20032;-68
2022/06/17 06:52:51;;;;;;;4.38;2.60;;;19.70;73.60;;;;;;4967582;28;20369;-68
2022/06/17 06:55:17;;;;;;;8.57;2.80;;;19.60;73.60;;;;;;4963005;28;20031;-69
2022/06/17 06:57:51;;;;;;;6.55;2.78;;;19.70;73.40;;;;;;4962167;28;20038;-68
2022/06/17 07:00:29;;;;;;;6.40;2.90;;;19.70;73.70;;;;;;4959067;28;20412;-68
2022/06/17 07:02:55;;;;;;;4.57;2.60;;;19.70;73.00;;;;;;4965476;28;20113;-67
2022/06/17 07:05:21;;;;;;;4.97;2.60;;;19.60;74.30;;;;;;4972355;28;20419;-68
2022/06/17 07:07:48;;;;;;;5.00;2.80;;;19.50;74.30;;;;;;4974642;28;20062;-68
2022/06/17 07:10:22;;;;;;;5.97;2.85;;;19.50;74.10;;;;;;4958736;28;20023;-68
2022/06/17 07:12:48;;;;;;;6.50;3.00;;;19.70;73.40;;;;;;4973804;28;20160;-68
2022/06/17 07:15:15;;;;;;;5.40;2.60;;;19.80;73.50;;;;;;4956058;28;20026;-69
2022/06/17 07:17:54;;;;;;;6.47;2.63;;;19.70;73.00;;;;;;4978351;28;20034;-68
2022/06/17 07:20:20;;;;;;;5.60;2.90;;;19.80;73.50;;;;;;4976878;28;20039;-68
2022/06/17 07:22:46;;;;;;;4.97;2.80;;;20.00;74.10;;;;;;4983235;28;20033;-77
2022/06/17 07:25:12;;;;;;;6.72;3.30;;;20.70;72.50;;;;;;4959953;28;20039;-68
2022/06/17 07:27:37;;;;;;;6.72;2.70;;;21.40;71.20;;;;;;4969993;28;20033;-75
2022/06/17 07:30:03;;;;;;;7.63;2.60;;;22.40;68.70;;;;;;4968612;28;20102;-68
2022/06/17 07:32:29;;;;;;;5.72;3.08;;;23.50;66.30;;;;;;4968681;28;20035;-69
2022/06/17 07:34:55;;;;;;;5.05;2.38;;;24.30;64.30;;;;;;4971169;28;20089;-69
2022/06/17 07:40:05;;;;;;;4.32;2.17;;;25.40;64.10;;;;;;4965128;28;20500;-68
2022/06/17 07:42:40;;;;;;;4.82;2.25;;;25.70;63.60;;;;;;4972570;28;20155;-68
2022/06/17 07:45:15;;;;;;;6.68;3.00;;;26.40;62.00;;;;;;4972924;28;20350;-68
2022/06/17 07:47:42;;;;;;;5.78;2.25;;;26.50;61.50;;;;;;4954494;28;20215;-68
2022/06/17 07:50:12;;;;;;;4.13;2.25;;;26.30;62.30;;;;;;4973088;28;20038;-68
2022/06/17 07:52:38;;;;;;;6.82;2.20;;;26.70;61.30;;;;;;4974680;28;20491;-69
2022/06/17 07:55:08;;;;;;;4.88;2.40;;;26.50;61.40;;;;;;4964751;28;20431;-68
2022/06/17 07:57:33;;;;;;;5.45;2.30;;;26.30;61.60;;;;;;4954341;28;20370;-68
2022/06/17 07:59:59;;;;;;;4.95;2.45;;;25.70;63.90;;;;;;4965355;28;20030;-68
2022/06/17 08:02:25;;;;;;;4.03;2.13;;;26.00;63.70;;;;;;4978610;28;20134;-68
2022/06/17 08:04:51;;;;;;;5.15;2.05;;;26.60;62.60;;;;;;4974672;28;20027;-68
2022/06/17 08:07:17;;;;;;;6.80;2.50;;;26.70;62.40;;;;;;4971862;28;20072;-68
2022/06/17 08:09:43;;;;;;;4.57;2.20;;;26.80;62.30;;;;;;4959399;28;20126;-68
2022/06/17 08:12:13;;;;;;;4.28;2.15;;;26.80;61.30;;;;;;4982105;28;20469;-68
2022/06/17 08:14:47;;;;;;;4.57;2.38;;;26.80;60.50;;;;;;4967587;28;20031;-68
2022/06/17 08:17:16;;;;;;;4.55;2.38;;;26.90;61.60;;;;;;4961014;28;20019;-68
2022/06/17 08:19:43;;;;;;;4.97;2.30;;;28.00;58.80;;;;;;4975056;28;20038;-67
2022/06/17 08:22:10;;;;;;;5.45;2.05;;;28.20;58.20;;;;;;4972192;28;20042;-67
2022/06/17 08:24:36;;;;;;;5.78;2.30;;;28.00;58.00;;;;;;4970794;28;20509;-68
2022/06/17 08:27:03;;;;;;;10.18;2.60;;;28.00;57.20;;;;;;4967710;28;20051;-68
2022/06/17 08:29:29;;;;;;;5.68;2.40;;;27.90;59.00;;;;;;4968659;28;20107;-68
2022/06/17 08:31:55;;;;;;;4.50;2.20;;;28.40;58.30;;;;;;4986230;28;20316;-68
2022/06/17 08:34:21;;;;;;;5.25;2.00;;;28.80;57.50;;;;;;4973210;28;20093;-68
2022/06/17 08:36:47;;;;;;;9.05;2.40;;;29.10;55.00;;;;;;4970884;28;20079;-68
2022/06/17 08:39:14;;;;;;;4.20;2.20;;;28.90;56.50;;;;;;4958755;28;20039;-68
2022/06/17 08:42:13;;;;;;;6.70;2.55;;;28.00;56.30;;;;;;4970042;28;20416;-69
2022/06/17 08:45:18;;;;;;;6.45;2.10;;;27.50;57.00;;;;;;4975461;28;20038;-69
2022/06/17 08:48:05;;;;;;;5.65;1.85;;;27.30;57.90;;;;;;4958029;28;20098;-68
2022/06/17 08:50:55;;;;;;;6.50;2.50;;;27.90;58.50;;;;;;4975462;28;20342;-68
2022/06/17 08:53:46;;;;;;;5.50;2.65;;;28.20;56.80;;;;;;4949921;28;20040;-68
2022/06/17 08:56:36;;;;;;;4.97;2.08;;;28.50;56.50;;;;;;4977584;28;20027;-68
2022/06/17 08:59:13;;;;;;;4.35;2.13;;;29.00;54.60;;;;;;4975900;28;20399;-68
2022/06/17 09:02:02;;;;;;;4.72;2.10;;;29.50;54.40;;;;;;4970904;28;20054;-68
2022/06/17 09:04:39;;;;;;;4.68;2.13;;;29.40;53.80;;;;;;4963287;28;20026;-67
2022/06/17 09:07:10;;;;;;;7.28;2.17;;;29.60;54.30;;;;;;4957378;28;20028;-67
2022/06/17 09:09:55;;;;;;;4.88;2.00;;;29.80;52.20;;;;;;4969507;28;20034;-69
2022/06/17 09:12:44;;;;;;;4.47;2.38;;;29.60;52.20;;;;;;4975803;28;20436;-69
2022/06/17 09:15:39;;;;;;;4.63;2.08;;;29.50;53.10;;;;;;4968320;28;20037;-69
2022/06/17 09:18:07;;;;;;;5.15;2.10;;;29.70;53.80;;;;;;4971316;28;20039;-68
2022/06/17 09:20:42;;;;;;;5.05;2.10;;;29.70;52.40;;;;;;4972975;28;20058;-69
2022/06/17 09:23:10;;;;;;;5.38;1.60;;;29.80;53.60;;;;;;4958823;28;20105;-69
2022/06/17 09:25:40;;;;;;;6.45;2.22;;;29.80;53.70;;;;;;4974767;28;20022;-68
2022/06/17 09:28:32;;;;;;;7.75;2.10;;;30.10;53.30;;;;;;4956575;28;20027;-68
2022/06/17 09:31:11;;;;;;;4.03;2.03;;;30.70;51.80;;;;;;4964779;28;20057;-68
2022/06/17 09:33:46;;;;;;;4.65;2.08;;;29.90;52.40;;;;;;4961121;28;20043;-68
2022/06/17 09:36:21;;;;;;;6.72;1.90;;;29.80;54.40;;;;;;4973184;28;20043;-68
2022/06/17 09:39:00;;;;;;;3.88;1.73;;;30.10;51.80;;;;;;4975076;28;20026;-68
2022/06/17 09:41:40;;;;;;;6.78;2.33;;;30.70;50.80;;;;;;4982325;28;20034;-68
2022/06/17 09:44:24;;;;;;;5.38;2.45;;;30.60;52.10;;;;;;4956303;28;20114;-68
2022/06/17 09:47:01;;;;;;;4.00;2.10;;;29.70;54.40;;;;;;4956931;28;20023;-68
2022/06/17 09:49:36;;;;;;;3.55;1.70;;;30.00;52.20;;;;;;4966378;28;20031;-68
2022/06/17 09:52:19;;;;;;;4.18;2.10;;;30.90;50.60;;;;;;4986488;28;20026;-68
2022/06/17 09:55:17;;;;;;;5.35;1.80;;;30.80;49.20;;;;;;4980977;28;20031;-68
2022/06/17 09:58:00;;;;;;;4.00;1.95;;;30.90;50.20;;;;;;4965692;28;20034;-68
2022/06/17 10:00:31;;;;;;;6.13;2.28;;;31.00;50.70;;;;;;4974433;28;20023;-69
2022/06/17 10:03:25;;;;;;;4.85;1.88;;;31.10;51.10;;;;;;4983758;28;20037;-68
2022/06/17 10:05:59;;;;;;;;;;;31.10;50.50;;;;;;4964337;28;20032;-68
2022/06/17 10:08:45;;;;;;;5.28;2.00;;;30.60;50.80;;;;;;4961113;28;19911;-67
2022/06/17 10:11:19;;;;;;;5.15;1.95;;;30.20;51.70;;;;;;4965659;28;20035;-67
2022/06/17 10:13:48;;;;;;;3.70;1.83;;;30.20;51.60;;;;;;4960609;28;20035;-67
2022/06/17 10:19:39;;;;;;;3.88;1.77;;;30.20;51.70;;;;;;4954503;28;20485;-67
2022/06/17 10:22:25;;;;;;;5.82;2.10;;;29.70;52.30;;;;;;4960199;28;20065;-67
2022/06/17 10:25:11;;;;;;;3.58;1.70;;;29.30;53.80;;;;;;4961598;28;20093;-67
2022/06/17 10:27:37;;;;;;;4.47;1.80;;;29.50;52.90;;;;;;4962832;28;20041;-68
2022/06/17 10:30:11;;;;;;;3.85;1.50;;;29.80;50.90;;;;;;4955864;28;20099;-68
2022/06/17 10:32:41;;;;;;;4.78;2.13;;;30.30;49.80;;;;;;4968790;28;20125;-68
2022/06/17 10:35:14;;;;;;;6.40;2.28;;;30.40;51.00;;;;;;4969407;28;20490;-68
2022/06/17 10:37:40;;;;;;;4.73;1.90;;;30.60;49.10;;;;;;4963050;28;20055;-68
2022/06/17 10:40:09;;;;;;;4.63;1.70;;;30.30;50.60;;;;;;4960094;28;20320;-68
2022/06/17 10:42:35;;;;;;;5.60;1.63;;;30.50;51.20;;;;;;4988488;28;20074;-68
2022/06/17 10:45:01;;;;;;;5.57;2.40;;;30.80;49.50;;;;;;4966013;28;20361;-68
2022/06/17 10:47:47;;;;;;;4.30;1.70;;;31.00;48.40;;;;;;5020267;28;20024;-68
2022/06/17 10:50:22;;;;;;;4.22;2.00;;;31.20;47.20;;;;;;4970798;28;20041;-68
2022/06/17 10:53:05;;;;;;;4.63;2.08;;;31.20;47.90;;;;;;4964730;28;20031;-68
2022/06/17 10:55:42;;;;;;;4.25;1.77;;;30.60;50.20;;;;;;4999379;28;20048;-68
2022/06/17 10:58:19;;;;;;;4.65;1.92;;;30.50;48.50;;;;;;4972706;28;20434;-68
2022/06/17 11:00:45;;;;;;;3.15;1.63;;;30.10;48.70;;;;;;4975144;28;20089;-68
2022/06/17 11:03:29;;;;;;;4.65;1.98;;;29.70;47.40;;;;;;4982359;28;20031;-68
2022/06/17 11:06:04;;;;;;;;;;;29.20;49.70;;;;;;4970073;28;20027;-68
2022/06/17 11:08:52;;;;;;;5.30;1.80;;;29.40;50.50;;;;;;4977000;28;19910;-68
2022/06/17 11:14:27;;;;;;;4.10;2.00;;;30.80;49.30;;;;;;4971784;28;20065;-68
2022/06/17 11:16:53;;;;;;;6.25;1.60;;;31.00;49.30;;;;;;4968032;28;20052;-68
2022/06/17 11:19:23;;;;;;;3.65;1.70;;;30.80;48.50;;;;;;4970345;28;20416;-67
2022/06/17 11:21:55;;;;;;;4.93;1.60;;;29.60;49.60;;;;;;4961105;28;20320;-67
2022/06/17 11:24:27;;;;;;;4.43;2.10;;;29.10;50.20;;;;;;5024389;28;20107;-67
2022/06/17 11:27:07;;;;;;;4.75;1.90;;;28.90;50.20;;;;;;4973520;28;20050;-68
2022/06/17 11:29:43;;;;;;;3.85;1.75;;;29.40;49.50;;;;;;4962679;28;20080;-69
2022/06/17 11:32:29;;;;;;;2.70;1.48;;;29.80;50.00;;;;;;4962423;28;20027;-68
2022/06/17 11:34:58;;;;;;;3.45;1.58;;;30.30;50.20;;;;;;4970176;28;20072;-68
2022/06/17 11:37:33;;;;;;;3.40;1.55;;;30.50;47.90;;;;;;4984274;28;20050;-68
2022/06/17 11:40:19;;;;;;;5.35;1.50;;;30.20;46.70;;;;;;4988838;28;20031;-67
2022/06/17 11:42:53;;;;;;;2.45;1.40;;;29.90;47.30;;;;;;4969747;28;20056;-68
2022/06/17 11:45:44;;;;;;;4.65;1.60;;;29.80;48.10;;;;;;4973985;28;20055;-68
2022/06/17 11:48:14;;;;;;;2.38;1.20;;;29.70;47.90;;;;;;4980641;28;20074;-68
2022/06/17 11:50:42;;;;;;;4.13;1.30;;;29.80;47.90;;;;;;4947082;28;20312;-68
2022/06/17 11:53:17;;;;;;;4.38;1.70;;;30.10;47.60;;;;;;4965615;28;20054;-68
2022/06/17 11:55:48;;;;;;;3.25;1.67;;;29.60;47.10;;;;;;4962304;28;20027;-68
2022/06/17 11:58:19;;;;;;;2.92;1.38;;;29.20;47.90;;;;;;4960036;28;20035;-68
2022/06/17 12:00:51;;;;;;;3.33;1.30;;;29.50;49.20;;;;;;4956258;28;20053;-68
2022/06/17 12:03:39;;;;;;;4.55;1.40;;;29.80;49.20;;;;;;4970897;28;20089;-69
2022/06/17 12:06:17;;;;;;;2.80;1.30;;;29.90;47.40;;;;;;4954535;28;20031;-69
2022/06/17 12:08:48;;;;;;;2.20;1.13;;;29.90;47.20;;;;;;4954396;28;20343;-70
2022/06/17 12:11:34;;;;;;;2.05;1.10;;;30.10;45.60;;;;;;4960950;28;20030;-70
2022/06/17 12:14:04;;;;;;;4.03;1.20;;;30.30;44.20;;;;;;4967802;28;20374;-69
2022/06/17 12:16:41;;;;;;;2.35;1.10;;;30.20;44.90;;;;;;4957081;28;20102;-69
2022/06/17 12:19:14;;;;;;;3.53;1.23;;;30.30;44.80;;;;;;4953217;28;20252;-68
2022/06/17 12:21:57;;;;;;;3.92;1.30;;;30.50;44.70;;;;;;4949926;28;20112;-69
2022/06/17 12:24:28;;;;;;;3.40;1.10;;;30.30;44.90;;;;;;4946656;28;20035;-69
2022/06/17 12:27:11;;;;;;;4.18;1.35;;;30.40;45.00;;;;;;4944106;28;20031;-68
2022/06/17 12:29:55;;;;;;;3.83;1.20;;;30.50;43.10;;;;;;4948426;28;20086;-68
2022/06/17 12:32:43;;;;;;;2.08;1.20;;;30.80;43.40;;;;;;4945999;28;20432;-69
2022/06/17 12:35:12;;;;;;;2.40;1.00;;;30.70;43.10;;;;;;4949188;28;20120;-68
2022/06/17 12:38:03;;;;;;;2.03;1.05;;;30.50;45.50;;;;;;4953097;28;20050;-68
2022/06/17 12:40:41;;;;;;;3.22;1.20;;;30.70;46.80;;;;;;4946680;28;20057;-69
2022/06/17 12:43:14;;;;;;;4.18;1.13;;;31.30;45.70;;;;;;4951514;28;20041;-68
2022/06/17 12:45:46;;;;;;;;;;;31.40;43.10;;;;;;4947088;28;20030;-68
2022/06/17 12:48:34;;;;;;;2.20;0.98;;;31.40;41.60;;;;;;4969314;28;19910;-66
2022/06/17 12:54:12;;;;;;;2.03;0.80;;;31.70;42.60;;;;;;4950478;28;20054;-68
2022/06/17 12:56:53;;;;;;;2.60;0.95;;;31.90;40.60;;;;;;4950142;28;20154;-68
2022/06/17 12:59:22;;;;;;;2.90;1.00;;;31.70;41.70;;;;;;4947011;28;20122;-67
2022/06/17 13:02:12;;;;;;;2.53;1.00;;;31.10;43.90;;;;;;4945436;28;20039;-67
2022/06/17 13:05:03;;;;;;;5.15;0.80;;;31.90;41.90;;;;;;4948279;28;20785;-68
2022/06/17 13:07:35;;;;;;;2.88;0.98;;;32.10;41.60;;;;;;4948091;28;20035;-69
2022/06/17 13:13:22;;;;;;;3.33;1.17;;;32.20;42.60;;;;;;4950377;28;20446;-68
2022/06/17 13:16:15;;;;;;;2.17;0.70;;;32.50;42.50;;;;;;4950970;28;20045;-69
2022/06/17 13:19:05;;;;;;;2.38;0.80;;;33.00;40.10;;;;;;4949321;28;20142;-68
2022/06/17 13:22:02;;;;;;;3.05;0.80;;;33.10;42.60;;;;;;4944273;28;20035;-68
2022/06/17 13:24:51;;;;;;;1.88;0.75;;;33.80;42.10;;;;;;4952185;28;20428;-68
2022/06/17 13:27:51;;;;;;;2.25;0.93;;;33.80;38.80;;;;;;4947919;28;20433;-68
2022/06/17 13:30:23;;;;;;;2.45;0.70;;;33.10;38.90;;;;;;4956044;28;20044;-68
2022/06/17 13:33:20;;;;;;;2.35;0.80;;;33.50;38.90;;;;;;4950049;28;20027;-68
2022/06/17 13:36:00;;;;;;;1.70;0.63;;;33.40;37.70;;;;;;4947649;28;20067;-68
2022/06/17 13:38:40;;;;;;;2.05;0.70;;;32.90;38.30;;;;;;4949310;28;20127;-68
2022/06/17 13:41:19;;;;;;;1.00;0.68;;;33.20;40.70;;;;;;4962592;28;20492;-68